This is the latest recevied weather packets stored in our database for station/object SR5NLK-1. If no packets are shown the sender has not sent any weather packets the latest 1 day(s).
| Time | Temp. | Humidity | Pressure | Rain* | Wind** | Luminosity | Snow |
|---|---|---|---|---|---|---|---|
| 1777958999 | 21.11° C | 53% | 995.6 hPa | 0 mm | 2.24 m/s, 67° | - | - |
| 1777958699 | 22.22° C | 51% | 1000.2 hPa | 0 mm | 3.13 m/s, 90° | - | - |
| 1777958400 | 22.78° C | 51% | 1050 hPa | 0 mm | 2.24 m/s, 67° | - | - |
| 1777958099 | 23.33° C | 51% | 1049.9 hPa | 0 mm | 3.13 m/s, 90° | - | - |
| 1777957799 | 23.33° C | 52% | 1036.5 hPa | 0 mm | 2.24 m/s, 45° | - | - |
| 1777957559 | 22.78° C | 54% | 1044.8 hPa | 0 mm | 1.79 m/s, 90° | - | - |
| 1777957499 | 22.78° C | 54% | 1041.7 hPa | 0 mm | 0.45 m/s, 45° | - | - |
| 1777957200 | 22.22° C | 55% | 953.2 hPa | 0 mm | 1.34 m/s, 112° | - | - |
| 1777956899 | 21.67° C | 56% | 1078.4 hPa | 0 mm | 0.89 m/s, 112° | - | - |
| 1777956599 | 21.67° C | 57% | 1070.7 hPa | 0 mm | 1.79 m/s, 67° | - | - |
| 1777956299 | 21.11° C | 58% | 1022.2 hPa | 0 mm | 1.79 m/s, 67° | - | - |
| 1777956000 | 20.56° C | 61% | 998.4 hPa | 0 mm | 0.89 m/s, 90° | - | - |
| 1777955700 | 20° C | 62% | 1090.9 hPa | 0 mm | 1.34 m/s, 22° | - | - |
| 1777955579 | 20° C | 62% | 1084.6 hPa | 0 mm | 0.45 m/s, 315° | - | - |
| 1777955400 | 19.44° C | 63% | 929.8 hPa | 0 mm | 1.34 m/s, 45° | - | - |
| 1777955100 | 19.44° C | 64% | 994.7 hPa | 0 mm | 0.89 m/s, 45° | - | - |
| 1777954801 | 18.89° C | 67% | 1003.3 hPa | 0 mm | 2.24 m/s, 45° | - | - |
| 1777954500 | 18.33° C | 69% | 1033.4 hPa | 0 mm | 0.45 m/s, 45° | - | - |
| 1777954200 | 17.78° C | 71% | 1090.9 hPa | 0 mm | 0.89 m/s, 22° | - | - |
| 1777953900 | 16.67° C | 73% | 1049.4 hPa | 0 mm | 1.34 m/s, 67° | - | - |
| 1777953599 | 16.11° C | 75% | 935.6 hPa | 0 mm | 0.89 m/s, 45° | - | - |
| 1777953300 | 15° C | 76% | 932.9 hPa | 0 mm | 0.89 m/s, 0° | - | - |
| 1777953000 | 14.44° C | 77% | 1052.2 hPa | 0 mm | 0.89 m/s, 45° | - | - |
| 1777952700 | 13.89° C | 77% | 1016.3 hPa | 0 mm | 0.45 m/s, 337° | - | - |
| 1777952400 | 13.33° C | 76% | 1004.1 hPa | 0 mm | 0.45 m/s, 22° | - | - |
* Rain latest hour (hover to see other rain measurements)
** Current wind speed in m/s (hover to see current wind gust speed)